sensor_id;sensor_type;location;lat;lon;timestamp;P1;durP1;ratioP1;P2;durP2;ratioP2
14342;SDS011;7255;53.596;9.960;2024-01-30T00:02:16;12.07;;;7.70;;
14342;SDS011;7255;53.596;9.960;2024-01-30T00:04:43;11.90;;;7.07;;
14342;SDS011;7255;53.596;9.960;2024-01-30T00:07:10;9.10;;;7.27;;
14342;SDS011;7255;53.596;9.960;2024-01-30T00:09:37;9.13;;;6.93;;
14342;SDS011;7255;53.596;9.960;2024-01-30T00:12:04;9.10;;;7.93;;
14342;SDS011;7255;53.596;9.960;2024-01-30T00:14:31;9.93;;;7.10;;
14342;SDS011;7255;53.596;9.960;2024-01-30T00:16:57;9.90;;;7.83;;
14342;SDS011;7255;53.596;9.960;2024-01-30T00:19:24;10.03;;;7.57;;
14342;SDS011;7255;53.596;9.960;2024-01-30T00:21:50;8.47;;;7.40;;
14342;SDS011;7255;53.596;9.960;2024-01-30T00:24:18;9.57;;;7.60;;
14342;SDS011;7255;53.596;9.960;2024-01-30T00:26:45;8.60;;;7.10;;
14342;SDS011;7255;53.596;9.960;2024-01-30T00:29:11;11.30;;;7.60;;
14342;SDS011;7255;53.596;9.960;2024-01-30T00:31:44;9.70;;;7.87;;
14342;SDS011;7255;53.596;9.960;2024-01-30T00:34:10;10.97;;;7.40;;
14342;SDS011;7255;53.596;9.960;2024-01-30T00:36:37;10.03;;;7.70;;
14342;SDS011;7255;53.596;9.960;2024-01-30T00:39:03;9.37;;;6.97;;
14342;SDS011;7255;53.596;9.960;2024-01-30T00:41:32;8.70;;;6.83;;
14342;SDS011;7255;53.596;9.960;2024-01-30T00:43:59;9.10;;;7.43;;
14342;SDS011;7255;53.596;9.960;2024-01-30T00:46:25;10.37;;;7.90;;
14342;SDS011;7255;53.596;9.960;2024-01-30T00:48:51;8.03;;;6.60;;
14342;SDS011;7255;53.596;9.960;2024-01-30T00:51:18;8.37;;;7.47;;
14342;SDS011;7255;53.596;9.960;2024-01-30T00:53:44;10.03;;;7.70;;
14342;SDS011;7255;53.596;9.960;2024-01-30T00:56:11;9.73;;;7.30;;
14342;SDS011;7255;53.596;9.960;2024-01-30T00:58:38;8.00;;;6.83;;
14342;SDS011;7255;53.596;9.960;2024-01-30T01:01:05;11.37;;;7.60;;
14342;SDS011;7255;53.596;9.960;2024-01-30T01:03:32;8.33;;;6.83;;
14342;SDS011;7255;53.596;9.960;2024-01-30T01:05:58;10.47;;;8.07;;
14342;SDS011;7255;53.596;9.960;2024-01-30T01:08:25;11.60;;;7.60;;
14342;SDS011;7255;53.596;9.960;2024-01-30T01:10:51;9.90;;;7.27;;
14342;SDS011;7255;53.596;9.960;2024-01-30T01:13:18;8.23;;;7.33;;
14342;SDS011;7255;53.596;9.960;2024-01-30T01:15:46;9.67;;;7.83;;
14342;SDS011;7255;53.596;9.960;2024-01-30T01:18:12;12.43;;;8.10;;
14342;SDS011;7255;53.596;9.960;2024-01-30T01:20:39;8.77;;;7.27;;
14342;SDS011;7255;53.596;9.960;2024-01-30T01:23:05;8.93;;;7.47;;
14342;SDS011;7255;53.596;9.960;2024-01-30T01:25:31;8.33;;;7.20;;
14342;SDS011;7255;53.596;9.960;2024-01-30T01:27:57;10.23;;;7.80;;
14342;SDS011;7255;53.596;9.960;2024-01-30T01:30:26;10.57;;;7.73;;
14342;SDS011;7255;53.596;9.960;2024-01-30T01:32:55;10.73;;;7.60;;
14342;SDS011;7255;53.596;9.960;2024-01-30T01:35:22;9.73;;;7.87;;
14342;SDS011;7255;53.596;9.960;2024-01-30T01:37:50;7.47;;;6.77;;
14342;SDS011;7255;53.596;9.960;2024-01-30T01:40:20;8.63;;;7.27;;
14342;SDS011;7255;53.596;9.960;2024-01-30T01:42:47;8.50;;;7.20;;
14342;SDS011;7255;53.596;9.960;2024-01-30T01:45:13;9.43;;;7.23;;
14342;SDS011;7255;53.596;9.960;2024-01-30T01:47:40;9.67;;;7.83;;
14342;SDS011;7255;53.596;9.960;2024-01-30T01:50:09;9.00;;;7.67;;
14342;SDS011;7255;53.596;9.960;2024-01-30T01:52:37;8.30;;;6.97;;
14342;SDS011;7255;53.596;9.960;2024-01-30T01:55:06;7.80;;;6.80;;
14342;SDS011;7255;53.596;9.960;2024-01-30T01:57:33;11.57;;;6.93;;
14342;SDS011;7255;53.596;9.960;2024-01-30T02:00:00;9.57;;;7.67;;
14342;SDS011;7255;53.596;9.960;2024-01-30T02:02:27;7.00;;;6.30;;
14342;SDS011;7255;53.596;9.960;2024-01-30T02:04:56;9.07;;;7.27;;
14342;SDS011;7255;53.596;9.960;2024-01-30T02:07:24;8.37;;;7.40;;
14342;SDS011;7255;53.596;9.960;2024-01-30T02:09:51;8.37;;;7.20;;
14342;SDS011;7255;53.596;9.960;2024-01-30T02:12:17;9.40;;;7.07;;
14342;SDS011;7255;53.596;9.960;2024-01-30T02:14:46;10.07;;;7.57;;
14342;SDS011;7255;53.596;9.960;2024-01-30T02:17:13;10.17;;;6.70;;
14342;SDS011;7255;53.596;9.960;2024-01-30T02:19:39;7.47;;;6.73;;
14342;SDS011;7255;53.596;9.960;2024-01-30T02:22:07;8.13;;;7.03;;
14342;SDS011;7255;53.596;9.960;2024-01-30T02:24:34;7.93;;;6.83;;
14342;SDS011;7255;53.596;9.960;2024-01-30T02:27:00;8.23;;;6.80;;
14342;SDS011;7255;53.596;9.960;2024-01-30T02:29:26;7.50;;;6.70;;
14342;SDS011;7255;53.596;9.960;2024-01-30T02:31:53;8.93;;;6.57;;
14342;SDS011;7255;53.596;9.960;2024-01-30T02:34:19;8.17;;;6.83;;
14342;SDS011;7255;53.596;9.960;2024-01-30T02:36:46;8.93;;;6.83;;
14342;SDS011;7255;53.596;9.960;2024-01-30T02:39:13;8.40;;;6.67;;
14342;SDS011;7255;53.596;9.960;2024-01-30T02:41:40;8.17;;;6.83;;
14342;SDS011;7255;53.596;9.960;2024-01-30T02:44:06;9.93;;;7.20;;
14342;SDS011;7255;53.596;9.960;2024-01-30T02:46:32;10.47;;;7.70;;
14342;SDS011;7255;53.596;9.960;2024-01-30T02:48:59;9.43;;;6.30;;
14342;SDS011;7255;53.596;9.960;2024-01-30T02:51:25;8.77;;;7.27;;
14342;SDS011;7255;53.596;9.960;2024-01-30T02:53:51;8.73;;;7.00;;
14342;SDS011;7255;53.596;9.960;2024-01-30T02:56:19;10.77;;;6.97;;
14342;SDS011;7255;53.596;9.960;2024-01-30T02:58:46;8.90;;;7.27;;
14342;SDS011;7255;53.596;9.960;2024-01-30T03:01:12;7.30;;;6.60;;
14342;SDS011;7255;53.596;9.960;2024-01-30T03:03:38;6.93;;;6.20;;
14342;SDS011;7255;53.596;9.960;2024-01-30T03:06:05;11.20;;;8.00;;
14342;SDS011;7255;53.596;9.960;2024-01-30T03:08:32;8.33;;;6.70;;
14342;SDS011;7255;53.596;9.960;2024-01-30T03:10:59;8.97;;;6.87;;
14342;SDS011;7255;53.596;9.960;2024-01-30T03:13:27;10.83;;;7.03;;
14342;SDS011;7255;53.596;9.960;2024-01-30T03:15:54;9.87;;;7.77;;
14342;SDS011;7255;53.596;9.960;2024-01-30T03:18:20;8.23;;;6.77;;
14342;SDS011;7255;53.596;9.960;2024-01-30T03:20:47;10.37;;;6.90;;
14342;SDS011;7255;53.596;9.960;2024-01-30T03:23:13;9.80;;;6.50;;
14342;SDS011;7255;53.596;9.960;2024-01-30T03:25:40;10.07;;;6.37;;
14342;SDS011;7255;53.596;9.960;2024-01-30T03:28:06;8.07;;;6.90;;
14342;SDS011;7255;53.596;9.960;2024-01-30T03:30:34;8.07;;;6.37;;
14342;SDS011;7255;53.596;9.960;2024-01-30T03:33:00;10.13;;;7.07;;
14342;SDS011;7255;53.596;9.960;2024-01-30T03:35:27;12.67;;;7.07;;
14342;SDS011;7255;53.596;9.960;2024-01-30T03:37:53;8.33;;;6.73;;
14342;SDS011;7255;53.596;9.960;2024-01-30T03:40:20;8.50;;;6.80;;
14342;SDS011;7255;53.596;9.960;2024-01-30T03:42:46;9.87;;;6.67;;
14342;SDS011;7255;53.596;9.960;2024-01-30T03:45:12;7.90;;;7.03;;
14342;SDS011;7255;53.596;9.960;2024-01-30T03:47:40;8.33;;;6.57;;
14342;SDS011;7255;53.596;9.960;2024-01-30T03:50:09;7.83;;;6.80;;
14342;SDS011;7255;53.596;9.960;2024-01-30T03:52:36;8.40;;;6.47;;
14342;SDS011;7255;53.596;9.960;2024-01-30T03:55:02;8.57;;;6.90;;
14342;SDS011;7255;53.596;9.960;2024-01-30T03:57:29;8.37;;;7.47;;
14342;SDS011;7255;53.596;9.960;2024-01-30T03:59:55;8.47;;;7.47;;
14342;SDS011;7255;53.596;9.960;2024-01-30T04:02:21;11.87;;;7.23;;
14342;SDS011;7255;53.596;9.960;2024-01-30T04:04:49;10.40;;;7.73;;
14342;SDS011;7255;53.596;9.960;2024-01-30T04:07:15;9.43;;;6.80;;
14342;SDS011;7255;53.596;9.960;2024-01-30T04:09:41;9.43;;;6.90;;
14342;SDS011;7255;53.596;9.960;2024-01-30T04:12:08;7.83;;;6.70;;
14342;SDS011;7255;53.596;9.960;2024-01-30T04:14:34;8.87;;;6.83;;
14342;SDS011;7255;53.596;9.960;2024-01-30T04:17:01;11.60;;;7.37;;
14342;SDS011;7255;53.596;9.960;2024-01-30T04:19:27;9.90;;;6.97;;
14342;SDS011;7255;53.596;9.960;2024-01-30T04:21:54;9.67;;;7.13;;
14342;SDS011;7255;53.596;9.960;2024-01-30T04:24:21;9.20;;;7.47;;
14342;SDS011;7255;53.596;9.960;2024-01-30T04:26:47;9.13;;;7.27;;
14342;SDS011;7255;53.596;9.960;2024-01-30T04:29:13;8.33;;;7.40;;
14342;SDS011;7255;53.596;9.960;2024-01-30T04:31:40;9.47;;;7.50;;
14342;SDS011;7255;53.596;9.960;2024-01-30T04:34:06;14.57;;;8.33;;
14342;SDS011;7255;53.596;9.960;2024-01-30T04:36:32;8.33;;;6.67;;
14342;SDS011;7255;53.596;9.960;2024-01-30T04:39:00;16.07;;;7.90;;
14342;SDS011;7255;53.596;9.960;2024-01-30T04:41:26;9.63;;;7.77;;
14342;SDS011;7255;53.596;9.960;2024-01-30T04:43:56;10.23;;;7.83;;
14342;SDS011;7255;53.596;9.960;2024-01-30T04:46:22;8.53;;;7.23;;
14342;SDS011;7255;53.596;9.960;2024-01-30T04:48:49;11.30;;;7.27;;
14342;SDS011;7255;53.596;9.960;2024-01-30T04:51:15;9.50;;;7.00;;
14342;SDS011;7255;53.596;9.960;2024-01-30T04:53:41;9.83;;;6.57;;
14342;SDS011;7255;53.596;9.960;2024-01-30T04:56:09;10.23;;;7.47;;
14342;SDS011;7255;53.596;9.960;2024-01-30T04:58:35;8.80;;;7.70;;
14342;SDS011;7255;53.596;9.960;2024-01-30T05:01:02;11.73;;;7.80;;
14342;SDS011;7255;53.596;9.960;2024-01-30T05:03:28;9.03;;;7.33;;
14342;SDS011;7255;53.596;9.960;2024-01-30T05:05:55;9.17;;;7.27;;
14342;SDS011;7255;53.596;9.960;2024-01-30T05:08:21;11.93;;;8.13;;
14342;SDS011;7255;53.596;9.960;2024-01-30T05:10:47;9.53;;;7.83;;
14342;SDS011;7255;53.596;9.960;2024-01-30T05:13:15;9.87;;;7.60;;
14342;SDS011;7255;53.596;9.960;2024-01-30T05:15:42;10.43;;;7.23;;
14342;SDS011;7255;53.596;9.960;2024-01-30T05:18:08;10.60;;;7.73;;
14342;SDS011;7255;53.596;9.960;2024-01-30T05:20:34;11.23;;;8.17;;
14342;SDS011;7255;53.596;9.960;2024-01-30T05:23:01;10.60;;;7.83;;
14342;SDS011;7255;53.596;9.960;2024-01-30T05:25:27;9.33;;;7.93;;
14342;SDS011;7255;53.596;9.960;2024-01-30T05:27:53;10.77;;;8.50;;
14342;SDS011;7255;53.596;9.960;2024-01-30T05:30:21;9.13;;;8.20;;
14342;SDS011;7255;53.596;9.960;2024-01-30T05:32:48;12.80;;;8.60;;
14342;SDS011;7255;53.596;9.960;2024-01-30T05:35:14;11.30;;;7.90;;
14342;SDS011;7255;53.596;9.960;2024-01-30T05:37:42;10.60;;;7.60;;
14342;SDS011;7255;53.596;9.960;2024-01-30T05:40:09;11.60;;;8.33;;
14342;SDS011;7255;53.596;9.960;2024-01-30T05:42:36;12.50;;;8.33;;
14342;SDS011;7255;53.596;9.960;2024-01-30T05:45:02;14.20;;;10.27;;
14342;SDS011;7255;53.596;9.960;2024-01-30T05:47:31;12.83;;;9.17;;
14342;SDS011;7255;53.596;9.960;2024-01-30T05:49:57;12.40;;;8.70;;
14342;SDS011;7255;53.596;9.960;2024-01-30T05:52:24;12.00;;;8.53;;
14342;SDS011;7255;53.596;9.960;2024-01-30T05:54:50;10.43;;;8.67;;
14342;SDS011;7255;53.596;9.960;2024-01-30T05:57:17;10.10;;;8.23;;
14342;SDS011;7255;53.596;9.960;2024-01-30T05:59:44;10.27;;;8.47;;
14342;SDS011;7255;53.596;9.960;2024-01-30T06:02:12;10.40;;;7.93;;
14342;SDS011;7255;53.596;9.960;2024-01-30T06:04:40;9.40;;;7.73;;
14342;SDS011;7255;53.596;9.960;2024-01-30T06:07:07;10.70;;;8.10;;
14342;SDS011;7255;53.596;9.960;2024-01-30T06:09:33;11.57;;;8.60;;
14342;SDS011;7255;53.596;9.960;2024-01-30T06:11:59;12.30;;;9.43;;
14342;SDS011;7255;53.596;9.960;2024-01-30T06:14:25;11.50;;;8.03;;
14342;SDS011;7255;53.596;9.960;2024-01-30T06:16:52;9.50;;;8.07;;
14342;SDS011;7255;53.596;9.960;2024-01-30T06:19:18;10.03;;;8.40;;
14342;SDS011;7255;53.596;9.960;2024-01-30T06:21:46;11.50;;;8.07;;
14342;SDS011;7255;53.596;9.960;2024-01-30T06:24:12;11.40;;;9.07;;
14342;SDS011;7255;53.596;9.960;2024-01-30T06:26:38;11.57;;;9.30;;
14342;SDS011;7255;53.596;9.960;2024-01-30T06:29:05;15.37;;;10.13;;
14342;SDS011;7255;53.596;9.960;2024-01-30T06:31:32;13.07;;;10.37;;
14342;SDS011;7255;53.596;9.960;2024-01-30T06:33:58;11.77;;;9.60;;
14342;SDS011;7255;53.596;9.960;2024-01-30T06:36:25;13.47;;;8.63;;
14342;SDS011;7255;53.596;9.960;2024-01-30T06:38:52;13.60;;;10.07;;
14342;SDS011;7255;53.596;9.960;2024-01-30T06:41:19;13.30;;;10.20;;
14342;SDS011;7255;53.596;9.960;2024-01-30T06:43:45;12.37;;;9.00;;
14342;SDS011;7255;53.596;9.960;2024-01-30T06:46:11;11.63;;;8.67;;
14342;SDS011;7255;53.596;9.960;2024-01-30T06:48:39;12.33;;;9.07;;
14342;SDS011;7255;53.596;9.960;2024-01-30T06:51:06;11.63;;;9.93;;
14342;SDS011;7255;53.596;9.960;2024-01-30T06:53:32;13.20;;;9.27;;
14342;SDS011;7255;53.596;9.960;2024-01-30T06:56:00;13.97;;;9.20;;
14342;SDS011;7255;53.596;9.960;2024-01-30T06:58:26;10.87;;;8.73;;
14342;SDS011;7255;53.596;9.960;2024-01-30T07:00:52;12.63;;;9.83;;
14342;SDS011;7255;53.596;9.960;2024-01-30T07:03:20;12.63;;;9.33;;
14342;SDS011;7255;53.596;9.960;2024-01-30T07:05:46;11.37;;;9.13;;
14342;SDS011;7255;53.596;9.960;2024-01-30T07:08:13;11.40;;;8.77;;
14342;SDS011;7255;53.596;9.960;2024-01-30T07:10:42;12.97;;;9.47;;
14342;SDS011;7255;53.596;9.960;2024-01-30T07:13:09;15.90;;;10.27;;
14342;SDS011;7255;53.596;9.960;2024-01-30T07:15:36;16.47;;;10.10;;
14342;SDS011;7255;53.596;9.960;2024-01-30T07:18:02;13.10;;;9.90;;
14342;SDS011;7255;53.596;9.960;2024-01-30T07:20:29;13.33;;;9.70;;
14342;SDS011;7255;53.596;9.960;2024-01-30T07:22:57;13.53;;;9.60;;
14342;SDS011;7255;53.596;9.960;2024-01-30T07:25:23;13.67;;;10.03;;
14342;SDS011;7255;53.596;9.960;2024-01-30T07:27:51;11.10;;;9.10;;
14342;SDS011;7255;53.596;9.960;2024-01-30T07:30:19;13.17;;;9.17;;
14342;SDS011;7255;53.596;9.960;2024-01-30T07:32:46;13.10;;;10.20;;
14342;SDS011;7255;53.596;9.960;2024-01-30T07:35:13;14.33;;;10.27;;
14342;SDS011;7255;53.596;9.960;2024-01-30T07:37:39;15.17;;;10.03;;
14342;SDS011;7255;53.596;9.960;2024-01-30T07:40:06;15.53;;;10.03;;
14342;SDS011;7255;53.596;9.960;2024-01-30T07:42:33;12.53;;;9.07;;
14342;SDS011;7255;53.596;9.960;2024-01-30T07:44:59;13.33;;;9.43;;
14342;SDS011;7255;53.596;9.960;2024-01-30T07:47:27;14.83;;;9.50;;
14342;SDS011;7255;53.596;9.960;2024-01-30T07:49:54;12.63;;;9.67;;
14342;SDS011;7255;53.596;9.960;2024-01-30T07:52:20;14.57;;;10.57;;
14342;SDS011;7255;53.596;9.960;2024-01-30T07:54:46;12.77;;;10.00;;
14342;SDS011;7255;53.596;9.960;2024-01-30T07:57:13;13.50;;;10.33;;
14342;SDS011;7255;53.596;9.960;2024-01-30T07:59:39;12.83;;;10.30;;
14342;SDS011;7255;53.596;9.960;2024-01-30T08:02:08;14.73;;;10.30;;
14342;SDS011;7255;53.596;9.960;2024-01-30T08:04:35;16.10;;;10.13;;
14342;SDS011;7255;53.596;9.960;2024-01-30T08:07:02;15.97;;;9.17;;
14342;SDS011;7255;53.596;9.960;2024-01-30T08:09:29;18.20;;;11.87;;
14342;SDS011;7255;53.596;9.960;2024-01-30T08:11:55;18.83;;;11.10;;
14342;SDS011;7255;53.596;9.960;2024-01-30T08:14:21;16.17;;;10.87;;
14342;SDS011;7255;53.596;9.960;2024-01-30T08:16:48;13.83;;;10.57;;
14342;SDS011;7255;53.596;9.960;2024-01-30T08:19:14;14.77;;;11.30;;
14342;SDS011;7255;53.596;9.960;2024-01-30T08:21:43;13.87;;;10.00;;
14342;SDS011;7255;53.596;9.960;2024-01-30T08:24:09;14.20;;;11.03;;
14342;SDS011;7255;53.596;9.960;2024-01-30T08:26:35;12.67;;;9.37;;
14342;SDS011;7255;53.596;9.960;2024-01-30T08:29:02;16.37;;;10.17;;
14342;SDS011;7255;53.596;9.960;2024-01-30T08:31:29;14.00;;;10.20;;
14342;SDS011;7255;53.596;9.960;2024-01-30T08:33:55;12.80;;;10.00;;
14342;SDS011;7255;53.596;9.960;2024-01-30T08:36:21;12.33;;;10.00;;
14342;SDS011;7255;53.596;9.960;2024-01-30T08:38:49;15.83;;;11.00;;
14342;SDS011;7255;53.596;9.960;2024-01-30T08:41:15;14.80;;;10.83;;
14342;SDS011;7255;53.596;9.960;2024-01-30T08:43:40;12.13;;;10.50;;
14342;SDS011;7255;53.596;9.960;2024-01-30T08:46:07;13.57;;;10.13;;
14342;SDS011;7255;53.596;9.960;2024-01-30T08:48:33;15.73;;;10.67;;
14342;SDS011;7255;53.596;9.960;2024-01-30T08:51:00;15.10;;;10.60;;
14342;SDS011;7255;53.596;9.960;2024-01-30T08:53:26;14.73;;;11.17;;
14342;SDS011;7255;53.596;9.960;2024-01-30T08:55:54;14.83;;;10.50;;
14342;SDS011;7255;53.596;9.960;2024-01-30T08:58:20;13.82;;;10.02;;
14342;SDS011;7255;53.596;9.960;2024-01-30T09:00:46;15.47;;;10.20;;
14342;SDS011;7255;53.596;9.960;2024-01-30T09:03:13;15.65;;;10.85;;
14342;SDS011;7255;53.596;9.960;2024-01-30T09:05:41;19.42;;;10.23;;
14342;SDS011;7255;53.596;9.960;2024-01-30T09:08:07;15.43;;;9.90;;
14342;SDS011;7255;53.596;9.960;2024-01-30T09:10:34;11.63;;;10.00;;
14342;SDS011;7255;53.596;9.960;2024-01-30T09:13:02;13.30;;;10.60;;
14342;SDS011;7255;53.596;9.960;2024-01-30T09:15:28;17.63;;;11.07;;
14342;SDS011;7255;53.596;9.960;2024-01-30T09:17:55;14.10;;;10.17;;
14342;SDS011;7255;53.596;9.960;2024-01-30T09:20:21;13.17;;;10.57;;
14342;SDS011;7255;53.596;9.960;2024-01-30T09:22:48;12.88;;;9.77;;
14342;SDS011;7255;53.596;9.960;2024-01-30T09:25:14;15.63;;;10.70;;
14342;SDS011;7255;53.596;9.960;2024-01-30T09:27:41;13.35;;;10.50;;
14342;SDS011;7255;53.596;9.960;2024-01-30T09:30:09;17.85;;;9.98;;
14342;SDS011;7255;53.596;9.960;2024-01-30T09:32:35;15.30;;;9.85;;
14342;SDS011;7255;53.596;9.960;2024-01-30T09:35:02;14.73;;;9.48;;
14342;SDS011;7255;53.596;9.960;2024-01-30T09:37:28;12.13;;;9.20;;
14342;SDS011;7255;53.596;9.960;2024-01-30T09:39:54;15.20;;;11.55;;
14342;SDS011;7255;53.596;9.960;2024-01-30T09:42:25;14.43;;;9.90;;
14342;SDS011;7255;53.596;9.960;2024-01-30T09:44:54;14.02;;;10.43;;
14342;SDS011;7255;53.596;9.960;2024-01-30T09:47:22;14.60;;;9.93;;
14342;SDS011;7255;53.596;9.960;2024-01-30T09:49:48;12.35;;;9.65;;
14342;SDS011;7255;53.596;9.960;2024-01-30T09:52:15;11.48;;;9.18;;
14342;SDS011;7255;53.596;9.960;2024-01-30T09:54:41;13.73;;;9.88;;
14342;SDS011;7255;53.596;9.960;2024-01-30T09:57:09;12.52;;;10.05;;
14342;SDS011;7255;53.596;9.960;2024-01-30T09:59:37;17.70;;;9.93;;
14342;SDS011;7255;53.596;9.960;2024-01-30T10:02:03;13.15;;;9.23;;
14342;SDS011;7255;53.596;9.960;2024-01-30T10:04:31;14.13;;;10.18;;
14342;SDS011;7255;53.596;9.960;2024-01-30T10:06:58;13.90;;;9.07;;
14342;SDS011;7255;53.596;9.960;2024-01-30T10:09:27;10.27;;;9.02;;
14342;SDS011;7255;53.596;9.960;2024-01-30T10:11:53;12.52;;;9.82;;
14342;SDS011;7255;53.596;9.960;2024-01-30T10:14:19;13.25;;;8.73;;
14342;SDS011;7255;53.596;9.960;2024-01-30T10:16:46;14.18;;;10.55;;
14342;SDS011;7255;53.596;9.960;2024-01-30T10:19:13;12.30;;;9.50;;
14342;SDS011;7255;53.596;9.960;2024-01-30T10:21:40;11.48;;;9.57;;
14342;SDS011;7255;53.596;9.960;2024-01-30T10:24:07;12.37;;;8.85;;
14342;SDS011;7255;53.596;9.960;2024-01-30T10:26:33;13.93;;;9.48;;
14342;SDS011;7255;53.596;9.960;2024-01-30T10:28:59;15.32;;;9.65;;
14342;SDS011;7255;53.596;9.960;2024-01-30T10:31:26;12.48;;;9.75;;
14342;SDS011;7255;53.596;9.960;2024-01-30T10:33:52;16.55;;;9.50;;
14342;SDS011;7255;53.596;9.960;2024-01-30T10:36:18;12.07;;;9.85;;
14342;SDS011;7255;53.596;9.960;2024-01-30T10:38:51;13.15;;;8.93;;
14342;SDS011;7255;53.596;9.960;2024-01-30T10:41:23;15.70;;;8.95;;
14342;SDS011;7255;53.596;9.960;2024-01-30T10:43:54;14.50;;;9.95;;
14342;SDS011;7255;53.596;9.960;2024-01-30T10:46:30;12.52;;;8.68;;
14342;SDS011;7255;53.596;9.960;2024-01-30T10:48:58;11.38;;;8.68;;
14342;SDS011;7255;53.596;9.960;2024-01-30T10:51:25;11.60;;;8.73;;
14342;SDS011;7255;53.596;9.960;2024-01-30T10:53:53;12.60;;;9.23;;
14342;SDS011;7255;53.596;9.960;2024-01-30T10:56:21;15.15;;;10.13;;
14342;SDS011;7255;53.596;9.960;2024-01-30T10:58:49;14.23;;;9.43;;
14342;SDS011;7255;53.596;9.960;2024-01-30T11:01:17;14.18;;;8.85;;
14342;SDS011;7255;53.596;9.960;2024-01-30T11:03:44;10.10;;;8.95;;
14342;SDS011;7255;53.596;9.960;2024-01-30T11:06:11;11.55;;;9.10;;
14342;SDS011;7255;53.596;9.960;2024-01-30T11:08:38;12.52;;;7.97;;
14342;SDS011;7255;53.596;9.960;2024-01-30T11:11:09;13.45;;;9.60;;
14342;SDS011;7255;53.596;9.960;2024-01-30T11:13:36;9.50;;;8.32;;
14342;SDS011;7255;53.596;9.960;2024-01-30T11:16:02;10.60;;;8.60;;
14342;SDS011;7255;53.596;9.960;2024-01-30T11:18:30;11.65;;;10.13;;
14342;SDS011;7255;53.596;9.960;2024-01-30T11:20:58;13.45;;;8.55;;
14342;SDS011;7255;53.596;9.960;2024-01-30T11:23:26;13.98;;;8.63;;
14342;SDS011;7255;53.596;9.960;2024-01-30T11:25:53;12.65;;;9.45;;
14342;SDS011;7255;53.596;9.960;2024-01-30T11:28:21;11.88;;;8.20;;
14342;SDS011;7255;53.596;9.960;2024-01-30T11:30:48;12.63;;;8.40;;
14342;SDS011;7255;53.596;9.960;2024-01-30T11:33:15;10.95;;;8.25;;
14342;SDS011;7255;53.596;9.960;2024-01-30T11:35:54;10.23;;;8.70;;
14342;SDS011;7255;53.596;9.960;2024-01-30T11:38:23;12.73;;;8.30;;
14342;SDS011;7255;53.596;9.960;2024-01-30T11:40:52;12.48;;;9.25;;
14342;SDS011;7255;53.596;9.960;2024-01-30T11:43:19;13.70;;;8.68;;
14342;SDS011;7255;53.596;9.960;2024-01-30T11:45:46;10.63;;;9.02;;
14342;SDS011;7255;53.596;9.960;2024-01-30T11:48:13;12.70;;;8.93;;
14342;SDS011;7255;53.596;9.960;2024-01-30T11:50:39;10.93;;;8.60;;
14342;SDS011;7255;53.596;9.960;2024-01-30T11:53:06;10.77;;;8.70;;
14342;SDS011;7255;53.596;9.960;2024-01-30T11:55:33;10.00;;;8.45;;
14342;SDS011;7255;53.596;9.960;2024-01-30T11:58:01;15.10;;;9.20;;
14342;SDS011;7255;53.596;9.960;2024-01-30T12:00:29;12.07;;;8.30;;
14342;SDS011;7255;53.596;9.960;2024-01-30T12:02:59;10.35;;;8.43;;
14342;SDS011;7255;53.596;9.960;2024-01-30T12:05:26;17.83;;;9.23;;
14342;SDS011;7255;53.596;9.960;2024-01-30T12:07:54;12.70;;;9.00;;
14342;SDS011;7255;53.596;9.960;2024-01-30T12:10:23;11.12;;;8.35;;
14342;SDS011;7255;53.596;9.960;2024-01-30T12:12:50;9.88;;;8.43;;
14342;SDS011;7255;53.596;9.960;2024-01-30T12:15:17;11.65;;;8.30;;
14342;SDS011;7255;53.596;9.960;2024-01-30T12:17:46;11.35;;;8.05;;
14342;SDS011;7255;53.596;9.960;2024-01-30T12:20:14;12.02;;;7.47;;
14342;SDS011;7255;53.596;9.960;2024-01-30T12:22:43;9.55;;;7.65;;
14342;SDS011;7255;53.596;9.960;2024-01-30T12:25:11;8.55;;;7.57;;
14342;SDS011;7255;53.596;9.960;2024-01-30T12:27:38;8.73;;;6.85;;
14342;SDS011;7255;53.596;9.960;2024-01-30T12:30:06;11.40;;;7.18;;
14342;SDS011;7255;53.596;9.960;2024-01-30T12:32:34;10.82;;;6.90;;
14342;SDS011;7255;53.596;9.960;2024-01-30T12:35:01;11.20;;;6.95;;
14342;SDS011;7255;53.596;9.960;2024-01-30T12:37:29;9.93;;;7.18;;
14342;SDS011;7255;53.596;9.960;2024-01-30T12:39:55;13.38;;;7.12;;
14342;SDS011;7255;53.596;9.960;2024-01-30T12:42:22;9.40;;;6.75;;
14342;SDS011;7255;53.596;9.960;2024-01-30T12:44:48;9.73;;;7.32;;
14342;SDS011;7255;53.596;9.960;2024-01-30T12:47:15;10.88;;;7.18;;
14342;SDS011;7255;53.596;9.960;2024-01-30T12:49:44;7.97;;;6.78;;
14342;SDS011;7255;53.596;9.960;2024-01-30T12:52:10;10.43;;;6.87;;
14342;SDS011;7255;53.596;9.960;2024-01-30T12:54:38;9.57;;;7.15;;
14342;SDS011;7255;53.596;9.960;2024-01-30T12:57:05;8.40;;;6.65;;
14342;SDS011;7255;53.596;9.960;2024-01-30T12:59:31;10.80;;;7.55;;
14342;SDS011;7255;53.596;9.960;2024-01-30T13:02:00;9.85;;;7.20;;
14342;SDS011;7255;53.596;9.960;2024-01-30T13:04:27;8.57;;;7.30;;
14342;SDS011;7255;53.596;9.960;2024-01-30T13:06:53;10.05;;;7.12;;
14342;SDS011;7255;53.596;9.960;2024-01-30T13:09:20;9.63;;;7.00;;
14342;SDS011;7255;53.596;9.960;2024-01-30T13:11:48;12.13;;;6.85;;
14342;SDS011;7255;53.596;9.960;2024-01-30T13:14:15;7.68;;;6.72;;
14342;SDS011;7255;53.596;9.960;2024-01-30T13:16:41;9.25;;;7.25;;
14342;SDS011;7255;53.596;9.960;2024-01-30T13:19:07;12.18;;;7.15;;
14342;SDS011;7255;53.596;9.960;2024-01-30T13:21:34;11.12;;;7.30;;
14342;SDS011;7255;53.596;9.960;2024-01-30T13:24:00;10.27;;;6.97;;
14342;SDS011;7255;53.596;9.960;2024-01-30T13:26:27;8.68;;;6.60;;
14342;SDS011;7255;53.596;9.960;2024-01-30T13:28:54;8.55;;;7.03;;
14342;SDS011;7255;53.596;9.960;2024-01-30T13:31:21;9.35;;;6.93;;
14342;SDS011;7255;53.596;9.960;2024-01-30T13:33:47;9.70;;;7.50;;
14342;SDS011;7255;53.596;9.960;2024-01-30T13:36:14;11.40;;;7.30;;
14342;SDS011;7255;53.596;9.960;2024-01-30T13:38:41;8.60;;;6.80;;
14342;SDS011;7255;53.596;9.960;2024-01-30T13:41:07;11.02;;;7.07;;
14342;SDS011;7255;53.596;9.960;2024-01-30T13:43:33;10.32;;;6.82;;
14342;SDS011;7255;53.596;9.960;2024-01-30T13:46:01;11.48;;;8.23;;
14342;SDS011;7255;53.596;9.960;2024-01-30T13:48:28;9.52;;;7.45;;
14342;SDS011;7255;53.596;9.960;2024-01-30T13:50:54;11.45;;;7.80;;
14342;SDS011;7255;53.596;9.960;2024-01-30T13:53:21;13.02;;;7.03;;
14342;SDS011;7255;53.596;9.960;2024-01-30T13:55:48;9.25;;;7.28;;
14342;SDS011;7255;53.596;9.960;2024-01-30T13:58:14;10.80;;;7.30;;
14342;SDS011;7255;53.596;9.960;2024-01-30T14:00:40;14.63;;;7.57;;
14342;SDS011;7255;53.596;9.960;2024-01-30T14:03:08;10.20;;;7.40;;
14342;SDS011;7255;53.596;9.960;2024-01-30T14:05:35;9.13;;;7.47;;
14342;SDS011;7255;53.596;9.960;2024-01-30T14:08:01;11.65;;;7.80;;
14342;SDS011;7255;53.596;9.960;2024-01-30T14:10:27;8.13;;;7.03;;
14342;SDS011;7255;53.596;9.960;2024-01-30T14:12:54;8.98;;;7.75;;
14342;SDS011;7255;53.596;9.960;2024-01-30T14:15:21;13.57;;;7.12;;
14342;SDS011;7255;53.596;9.960;2024-01-30T14:17:47;7.68;;;6.65;;
14342;SDS011;7255;53.596;9.960;2024-01-30T14:20:16;9.40;;;7.43;;
14342;SDS011;7255;53.596;9.960;2024-01-30T14:22:42;10.30;;;7.90;;
14342;SDS011;7255;53.596;9.960;2024-01-30T14:25:09;9.35;;;7.25;;
14342;SDS011;7255;53.596;9.960;2024-01-30T14:27:35;10.38;;;7.68;;
14342;SDS011;7255;53.596;9.960;2024-01-30T14:30:02;12.02;;;8.70;;
14342;SDS011;7255;53.596;9.960;2024-01-30T14:32:29;9.55;;;7.32;;
14342;SDS011;7255;53.596;9.960;2024-01-30T14:34:56;9.20;;;7.25;;
14342;SDS011;7255;53.596;9.960;2024-01-30T14:37:23;11.32;;;7.75;;
14342;SDS011;7255;53.596;9.960;2024-01-30T14:39:54;9.65;;;7.35;;
14342;SDS011;7255;53.596;9.960;2024-01-30T14:42:20;11.20;;;6.97;;
14342;SDS011;7255;53.596;9.960;2024-01-30T14:44:47;10.82;;;6.68;;
14342;SDS011;7255;53.596;9.960;2024-01-30T14:47:14;12.37;;;7.60;;
14342;SDS011;7255;53.596;9.960;2024-01-30T14:49:40;13.43;;;6.93;;